createdAt,value
2023-02-04T00:00:36.110Z,3.4
2023-02-04T00:05:36.375Z,3.4
2023-02-04T00:10:36.534Z,3.4
2023-02-04T00:15:36.491Z,3.3
2023-02-04T00:20:36.600Z,3.3
2023-02-04T00:25:36.623Z,3.3
2023-02-04T00:30:36.723Z,3.3
2023-02-04T00:35:36.784Z,3.4
2023-02-04T00:40:36.953Z,3.4
2023-02-04T00:45:36.161Z,3.3
2023-02-04T00:50:36.325Z,3.3
2023-02-04T00:55:36.438Z,3.3
2023-02-04T01:00:36.785Z,3.3
2023-02-04T01:05:36.924Z,3.2
2023-02-04T01:10:37.223Z,3.2
2023-02-04T01:15:36.730Z,3
2023-02-04T01:20:36.784Z,3
2023-02-04T01:25:36.190Z,2.8
2023-02-04T01:30:36.995Z,2.8
2023-02-04T01:35:36.160Z,2.7
2023-02-04T01:40:36.305Z,2.7
2023-02-04T01:45:36.610Z,2.5
2023-02-04T01:50:36.768Z,2.5
2023-02-04T01:55:37.030Z,2.3
2023-02-04T02:00:37.122Z,2.3
2023-02-04T02:05:36.260Z,2
2023-02-04T02:10:36.403Z,2
2023-02-04T02:15:36.421Z,1.8
2023-02-04T02:20:36.531Z,1.8
2023-02-04T02:25:36.654Z,1.6
2023-02-04T02:30:36.811Z,1.6
2023-02-04T02:35:36.905Z,1.4
2023-02-04T02:40:36.900Z,1.4
2023-02-04T02:45:36.924Z,1.4
2023-02-04T02:50:36.253Z,1.4
2023-02-04T02:55:36.345Z,1.4
2023-02-04T03:00:36.573Z,1.4
2023-02-04T03:05:36.766Z,1.4
2023-02-04T03:10:37.179Z,1.4
2023-02-04T03:15:36.767Z,1.4
2023-02-04T03:20:37.008Z,1.4
2023-02-04T03:25:36.672Z,1.3
2023-02-04T03:30:37.160Z,1.3
2023-02-04T03:35:36.181Z,1.2
2023-02-04T03:40:36.388Z,1.2
2023-02-04T03:45:46.139Z,1
2023-02-04T03:50:36.342Z,1
2023-02-04T03:55:36.792Z,0.8
2023-02-04T04:00:37.170Z,0.8
2023-02-04T04:05:36.929Z,0.7
2023-02-04T04:10:36.674Z,0.7
2023-02-04T04:15:37.102Z,0.6
2023-02-04T04:20:37.099Z,0.6
2023-02-04T04:25:36.386Z,0.6
2023-02-04T04:30:36.746Z,0.6
2023-02-04T04:35:36.949Z,0.7
2023-02-04T04:40:37.144Z,0.7
2023-02-04T04:45:37.045Z,0.8
2023-02-04T04:50:36.400Z,0.8
2023-02-04T04:55:36.587Z,0.9
2023-02-04T05:00:37.040Z,0.9
2023-02-04T05:05:37.197Z,1
2023-02-04T05:10:37.290Z,1
2023-02-04T05:15:36.599Z,1.2
2023-02-04T05:20:36.699Z,1.2
2023-02-04T05:25:36.954Z,1.2
2023-02-04T05:30:36.804Z,1.2
2023-02-04T05:35:36.873Z,1.3
2023-02-04T05:40:36.928Z,1.3
2023-02-04T05:45:37.217Z,1.3
2023-02-04T05:50:36.329Z,1.3
2023-02-04T05:55:36.352Z,1.3
2023-02-04T06:00:36.933Z,1.3
2023-02-04T06:05:36.925Z,1.3
2023-02-04T06:10:37.302Z,1.3
2023-02-04T06:15:36.310Z,1.2
2023-02-04T06:20:36.878Z,1.2
2023-02-04T06:25:36.990Z,1.1
2023-02-04T06:30:37.390Z,1.1
2023-02-04T06:35:36.467Z,0.8
2023-02-04T06:40:36.495Z,0.8
2023-02-04T06:45:36.774Z,0.7
2023-02-04T06:50:36.744Z,0.7
2023-02-04T06:55:36.851Z,0.4
2023-02-04T07:00:37.085Z,0.4
2023-02-04T07:05:37.019Z,0.3
2023-02-04T07:10:37.107Z,0.3
2023-02-04T07:15:36.521Z,0.1
2023-02-04T07:20:36.686Z,0.1
2023-02-04T07:25:36.685Z,0.1
2023-02-04T07:30:37.046Z,0.1
2023-02-04T07:35:36.627Z,0
2023-02-04T07:40:37.027Z,0
2023-02-04T07:45:37.176Z,-0.1
2023-02-04T07:50:37.158Z,-0.1
2023-02-04T07:55:37.093Z,-0.1
2023-02-04T08:00:36.361Z,-0.1
2023-02-04T08:05:36.574Z,-0.1
2023-02-04T08:10:36.995Z,-0.1
2023-02-04T08:15:37.245Z,0.9
2023-02-04T08:20:36.317Z,0.9
2023-02-04T08:25:36.468Z,1.4
2023-02-04T08:30:36.893Z,1.4
2023-02-04T08:35:36.984Z,1.7
2023-02-04T08:40:37.204Z,1.7
2023-02-04T08:45:37.331Z,1.8
2023-02-04T08:50:39.277Z,1.8
2023-02-04T08:55:36.817Z,2.1
2023-02-04T09:00:37.182Z,2.1
2023-02-04T09:06:02.616Z,2.4
2023-02-04T09:10:36.774Z,2.4
2023-02-04T09:15:36.829Z,2.6
2023-02-04T09:20:37.005Z,2.6
2023-02-04T09:25:37.048Z,2.8
2023-02-04T09:30:37.103Z,2.8
2023-02-04T09:35:37.211Z,3.1
2023-02-04T09:40:37.396Z,3.1
2023-02-04T09:45:36.648Z,3.2
2023-02-04T09:50:36.767Z,3.2
2023-02-04T09:55:36.791Z,3.4
2023-02-04T10:00:36.759Z,3.4
2023-02-04T10:05:36.929Z,3.6
2023-02-04T10:10:37.107Z,3.6
2023-02-04T10:15:37.305Z,3.6
2023-02-04T10:20:36.526Z,3.6
2023-02-04T10:25:36.627Z,3.8
2023-02-04T10:30:37.541Z,3.8
2023-02-04T10:35:36.586Z,4.2
2023-02-04T10:40:36.608Z,4.2
2023-02-04T10:45:36.862Z,4.1
2023-02-04T10:50:36.756Z,4.1
2023-02-04T10:55:36.730Z,4.2
2023-02-04T11:00:37.090Z,4.2
2023-02-04T11:05:37.095Z,4.3
2023-02-04T11:10:37.153Z,4.3
2023-02-04T11:15:37.266Z,4.4
2023-02-04T11:20:37.196Z,4.4
2023-02-04T11:25:37.227Z,4.5
2023-02-04T11:30:37.569Z,4.5
2023-02-04T11:35:36.637Z,4.5
2023-02-04T11:40:36.805Z,4.5
2023-02-04T11:45:36.817Z,4.6
2023-02-04T11:50:36.790Z,4.6
2023-02-04T11:55:37.083Z,4.6
2023-02-04T12:00:37.300Z,4.6
2023-02-04T12:05:37.268Z,4.7
2023-02-04T12:10:37.253Z,4.7
2023-02-04T12:15:37.408Z,4.7
2023-02-04T12:20:36.546Z,4.7
2023-02-04T12:25:36.558Z,4.9
2023-02-04T12:30:36.714Z,4.9
2023-02-04T12:35:36.851Z,4.9
2023-02-04T12:40:36.926Z,4.9
2023-02-04T12:45:37.054Z,5
2023-02-04T12:50:37.070Z,5
2023-02-04T12:55:37.068Z,4.9
2023-02-04T13:00:37.164Z,4.9
2023-02-04T13:05:37.269Z,5.1
2023-02-04T13:10:37.481Z,5.1
2023-02-04T13:15:36.624Z,4.9
2023-02-04T13:20:36.687Z,4.9
2023-02-04T13:25:36.735Z,4.9
2023-02-04T13:30:36.939Z,4.9
2023-02-04T13:35:36.957Z,4.8
2023-02-04T13:40:37.085Z,4.8
2023-02-04T13:45:37.132Z,4.8
2023-02-04T13:50:37.184Z,4.8
2023-02-04T13:55:37.330Z,4.8
2023-02-04T14:00:36.890Z,4.8
2023-02-04T14:05:36.945Z,4.8
2023-02-04T14:10:39.234Z,4.8
2023-02-04T14:15:37.400Z,4.7
2023-02-04T14:20:36.727Z,4.7
2023-02-04T14:25:36.676Z,4.7
2023-02-04T14:30:37.476Z,4.7
2023-02-04T14:35:37.505Z,4.6
2023-02-04T14:40:37.699Z,4.6
2023-02-04T14:45:36.842Z,4.3
2023-02-04T14:50:37.279Z,4.3
2023-02-04T14:55:37.399Z,4.2
2023-02-04T15:00:36.738Z,4.2
2023-02-04T15:05:37.052Z,4.2
2023-02-04T15:10:36.928Z,4.2
2023-02-04T15:15:37.253Z,4.2
2023-02-04T15:20:37.306Z,4.2
2023-02-04T15:25:36.586Z,4
2023-02-04T15:30:38.078Z,4
2023-02-04T15:35:37.068Z,3.9
2023-02-04T15:40:37.635Z,3.9
2023-02-04T15:45:37.392Z,3.8
2023-02-04T15:50:36.849Z,3.8
2023-02-04T15:55:36.578Z,3.8
2023-02-04T16:00:36.594Z,3.8
2023-02-04T16:05:36.948Z,3.7
2023-02-04T16:10:37.579Z,3.7
2023-02-04T16:15:37.370Z,3.7
2023-02-04T16:20:37.714Z,3.7
2023-02-04T16:25:37.348Z,3.6
2023-02-04T16:30:37.097Z,3.6
2023-02-04T16:35:37.353Z,3.5
2023-02-04T16:40:37.410Z,3.5
2023-02-04T16:45:37.335Z,3.4
2023-02-04T16:50:37.294Z,3.4
2023-02-04T16:55:37.601Z,3.4
2023-02-04T17:00:36.783Z,3.4
2023-02-04T17:05:36.846Z,3.3
2023-02-04T17:10:36.929Z,3.3
2023-02-04T17:15:37.102Z,3.2
2023-02-04T17:20:37.071Z,3.2
2023-02-04T17:25:37.103Z,3.2
2023-02-04T17:30:37.553Z,3.2
2023-02-04T17:35:36.844Z,3.1
2023-02-04T17:40:37.061Z,3.1
2023-02-04T17:45:38.359Z,3.1
2023-02-04T17:55:38.221Z,2.9
2023-02-04T18:00:37.699Z,2.9
2023-02-04T18:05:38.561Z,2.8
2023-02-04T18:10:37.183Z,2.8
2023-02-04T18:15:38.636Z,2.6
2023-02-04T18:20:36.664Z,2.6
2023-02-04T18:25:36.760Z,2.5
2023-02-04T18:30:37.327Z,2.5
2023-02-04T18:35:37.326Z,2.3
2023-02-04T18:40:37.310Z,2.3
2023-02-04T18:45:37.427Z,2.3
2023-02-04T18:50:37.440Z,2.3
2023-02-04T18:55:37.513Z,2.2
2023-02-04T19:00:37.087Z,2.2
2023-02-04T19:05:37.033Z,2.2
2023-02-04T19:10:37.158Z,2.2
2023-02-04T19:15:37.373Z,2.2
2023-02-04T19:20:37.495Z,2.2
2023-02-04T19:25:37.607Z,2.2
2023-02-04T19:30:37.778Z,2.2
2023-02-04T19:35:36.808Z,2.1
2023-02-04T19:40:37.036Z,2.1
2023-02-04T19:45:37.192Z,2.1
2023-02-04T19:50:37.285Z,2.1
2023-02-04T19:55:37.739Z,2
2023-02-04T20:00:36.723Z,2
2023-02-04T20:05:37.687Z,1.9
2023-02-04T20:10:37.812Z,1.9
2023-02-04T20:15:37.548Z,1.8
2023-02-04T20:20:37.490Z,1.8
2023-02-04T20:25:37.602Z,1.6
2023-02-04T20:30:37.036Z,1.6
2023-02-04T20:35:37.044Z,1.5
2023-02-04T20:40:37.108Z,1.5
2023-02-04T20:45:37.266Z,1.4
2023-02-04T20:50:37.339Z,1.4
2023-02-04T20:55:37.544Z,1.2
2023-02-04T21:00:37.649Z,1.2
2023-02-04T21:05:36.886Z,1.1
2023-02-04T21:10:37.274Z,1.1
2023-02-04T21:15:37.391Z,0.9
2023-02-04T21:20:37.552Z,0.9
2023-02-04T21:25:37.623Z,0.8
2023-02-04T21:30:37.657Z,0.8
2023-02-04T21:35:37.760Z,0.8
2023-02-04T21:40:36.880Z,0.8
2023-02-04T21:45:36.846Z,0.6
2023-02-04T21:50:36.885Z,0.6
2023-02-04T21:55:36.862Z,0.5
2023-02-04T22:00:36.852Z,0.5
2023-02-04T22:05:37.019Z,0.4
2023-02-04T22:10:37.233Z,0.4
2023-02-04T22:15:37.239Z,0.3
2023-02-04T22:20:39.714Z,0.3
2023-02-04T22:25:37.639Z,0.3
2023-02-04T22:30:37.766Z,0.3
2023-02-04T22:35:36.980Z,0.2
2023-02-04T22:40:36.979Z,0.2
2023-02-04T22:45:37.136Z,0.2
2023-02-04T22:50:37.257Z,0.2
2023-02-04T22:55:37.247Z,0.1
2023-02-04T23:00:37.590Z,0.1
2023-02-04T23:05:36.895Z,0.1
2023-02-04T23:10:39.165Z,0.1
2023-02-04T23:15:37.221Z,-0.1
2023-02-04T23:20:37.430Z,-0.1
2023-02-04T23:25:37.560Z,-0.1
2023-02-04T23:30:37.816Z,-0.1
2023-02-04T23:35:37.825Z,-0.2
2023-02-04T23:40:37.940Z,-0.2
2023-02-04T23:45:37.598Z,-0.3
2023-02-04T23:55:40.119Z,-0.4
